Time;durP1;ratioP1;P1;durP2;ratioP2;P2;SDS_P1;SDS_P2;PMS_P1;PMS_P2;Temp;Humidity;BMP_temperature;BMP_pressure;BME280_temperature;BME280_humidity;BME280_pressure;Samples;Min_cycle;Max_cycle;Signal;HPM_P1;HPM_P2
2022/06/16 00:00:59;;;;;;;7.68;3.38;;;13.20;99.90;;;;;;5050161;28;20067;-78
2022/06/16 00:03:25;;;;;;;7.55;3.45;;;13.20;99.90;;;;;;5050119;28;20504;-76
2022/06/16 00:05:51;;;;;;;5.55;3.40;;;13.20;99.90;;;;;;5049853;28;20049;-76
2022/06/16 00:08:18;;;;;;;8.27;3.17;;;13.20;99.90;;;;;;5049941;28;20033;-75
2022/06/16 00:13:35;;;;;;;6.28;3.13;;;13.10;99.90;;;;;;5031599;28;20563;-77
2022/06/16 00:16:01;;;;;;;8.93;3.45;;;13.20;99.90;;;;;;5050143;28;20076;-76
2022/06/16 00:18:28;;;;;;;8.35;3.47;;;13.00;99.90;;;;;;5031314;28;20058;-79
2022/06/16 00:20:53;;;;;;;7.78;3.58;;;12.90;99.90;;;;;;5031829;28;20095;-79
2022/06/16 00:23:19;;;;;;;5.75;3.28;;;12.90;99.90;;;;;;5049835;28;20073;-78
2022/06/16 00:25:45;;;;;;;4.80;3.10;;;13.20;99.90;;;;;;5030927;28;20148;-76
2022/06/16 00:28:11;;;;;;;8.15;3.45;;;12.90;99.90;;;;;;5034068;28;20049;-76
2022/06/16 00:30:36;;;;;;;8.85;3.67;;;12.90;99.90;;;;;;5035478;28;20476;-75
2022/06/16 00:33:02;;;;;;;8.13;3.53;;;12.70;99.90;;;;;;5035665;28;20091;-76
2022/06/16 00:35:28;;;;;;;9.43;4.07;;;12.70;99.90;;;;;;5053228;28;20160;-76
2022/06/16 00:37:54;;;;;;;7.65;3.42;;;12.80;99.90;;;;;;5053436;28;20067;-79
2022/06/16 00:40:19;;;;;;;5.50;3.08;;;13.30;99.90;;;;;;5053214;28;20106;-76
2022/06/16 00:42:45;;;;;;;7.07;3.30;;;12.80;99.90;;;;;;5053040;28;20412;-76
2022/06/16 00:45:49;;;;;;;6.22;2.92;;;12.70;99.90;;;;;;5035159;28;20053;-76
2022/06/16 00:48:17;;;;;;;10.23;3.88;;;12.70;99.90;;;;;;5053083;28;20067;-75
2022/06/16 00:50:46;;;;;;;9.07;3.78;;;12.60;99.90;;;;;;5052997;28;20048;-76
2022/06/16 00:53:12;;;;;;;8.77;3.72;;;12.50;99.90;;;;;;5035183;28;20073;-77
2022/06/16 00:55:38;;;;;;;7.50;3.03;;;12.40;99.90;;;;;;5035160;28;20498;-76
2022/06/16 00:58:03;;;;;;;7.68;3.20;;;12.50;99.90;;;;;;5053203;28;20076;-78
2022/06/16 01:00:34;;;;;;;7.13;3.35;;;12.40;99.90;;;;;;5052832;28;20168;-75
2022/06/16 01:03:00;;;;;;;7.45;3.42;;;12.40;99.90;;;;;;5036092;28;20076;-77
2022/06/16 01:05:25;;;;;;;7.68;3.47;;;12.30;99.90;;;;;;5034919;28;20427;-78
2022/06/16 01:07:53;;;;;;;5.85;3.03;;;12.30;99.90;;;;;;5052553;28;20111;-76
2022/06/16 01:10:19;;;;;;;5.90;3.20;;;12.30;99.90;;;;;;5052681;28;20124;-76
2022/06/16 01:16:24;;;;;;;5.38;3.00;;;12.10;99.90;;;;;;5034129;28;20603;-76
2022/06/16 01:19:05;;;;;;;6.40;3.25;;;12.10;99.90;;;;;;5034506;28;20064;-75
2022/06/16 01:21:38;;;;;;;7.78;3.50;;;12.10;99.90;;;;;;5034799;28;20055;-77
2022/06/16 01:24:21;;;;;;;11.55;3.70;;;12.10;99.90;;;;;;5034855;28;20128;-74
2022/06/16 01:27:21;;;;;;;6.07;2.75;;;12.20;99.90;;;;;;5052269;28;20041;-75
2022/06/16 01:29:54;;;;;;;7.82;3.15;;;12.20;99.90;;;;;;5034488;28;20056;-76
2022/06/16 01:32:32;;;;;;;7.05;3.00;;;12.30;99.90;;;;;;5052072;28;20056;-78
2022/06/16 01:35:00;;;;;;;7.22;3.40;;;12.20;99.90;;;;;;5052047;28;20037;-75
2022/06/16 01:38:01;;;;;;;7.22;3.00;;;12.20;99.90;;;;;;5051966;28;20078;-74
2022/06/16 01:40:45;;;;;;;7.22;3.22;;;12.20;99.90;;;;;;5051425;28;20060;-75
2022/06/16 01:43:23;;;;;;;5.13;2.80;;;12.20;99.90;;;;;;5051853;28;20070;-75
2022/06/16 01:46:09;;;;;;;7.05;3.22;;;12.30;99.90;;;;;;5051750;28;20747;-74
2022/06/16 01:48:36;;;;;;;9.18;3.30;;;12.30;99.90;;;;;;5051826;28;20568;-74
2022/06/16 01:51:09;;;;;;;8.07;3.40;;;12.30;99.90;;;;;;5052008;28;20088;-75
2022/06/16 01:53:45;;;;;;;7.10;4.00;;;12.30;99.90;;;;;;5033870;28;20089;-74
2022/06/16 01:56:24;;;;;;;6.57;3.13;;;12.30;99.90;;;;;;5051519;28;20059;-77
2022/06/16 01:58:57;;;;;;;6.50;3.03;;;12.20;99.90;;;;;;5051901;28;20055;-75
2022/06/16 02:01:26;;;;;;;6.78;2.75;;;12.20;99.90;;;;;;5051526;28;20463;-78
2022/06/16 02:03:57;;;;;;;7.68;3.55;;;12.30;99.90;;;;;;5033737;28;20061;-76
2022/06/16 02:06:27;;;;;;;6.75;3.38;;;12.50;99.90;;;;;;5051492;28;20135;-77
2022/06/16 02:08:57;;;;;;;7.72;3.20;;;12.30;99.90;;;;;;5033483;28;20096;-75
2022/06/16 02:11:32;;;;;;;7.07;3.33;;;12.30;99.90;;;;;;5051481;28;20098;-77
2022/06/16 02:14:06;;;;;;;6.57;3.22;;;12.30;99.90;;;;;;5033744;28;20055;-75
2022/06/16 02:16:34;;;;;;;8.18;3.25;;;12.30;99.90;;;;;;5051197;28;20044;-76
2022/06/16 02:19:02;;;;;;;7.40;3.13;;;12.30;99.90;;;;;;5051357;28;20037;-74
2022/06/16 02:21:36;;;;;;;7.45;3.28;;;12.30;99.90;;;;;;5051100;28;20037;-75
2022/06/16 02:24:03;;;;;;;5.20;3.10;;;12.30;99.90;;;;;;5051303;28;20116;-75
2022/06/16 02:26:29;;;;;;;6.93;2.80;;;12.20;99.90;;;;;;5051049;28;20506;-76
2022/06/16 02:28:58;;;;;;;5.93;2.90;;;12.30;99.90;;;;;;5033379;28;20064;-77
2022/06/16 02:31:40;;;;;;;5.28;2.60;;;12.30;99.90;;;;;;5033051;28;20087;-76
2022/06/16 02:34:14;;;;;;;5.95;3.08;;;12.20;99.90;;;;;;5050799;28;20128;-77
2022/06/16 02:36:58;;;;;;;8.30;2.88;;;12.20;99.90;;;;;;5051146;28;20056;-75
2022/06/16 02:39:32;;;;;;;7.70;3.35;;;12.20;99.90;;;;;;5050917;28;20116;-78
2022/06/16 02:42:15;;;;;;;4.15;2.65;;;12.20;99.90;;;;;;5032994;28;20052;-75
2022/06/16 02:44:49;;;;;;;8.00;3.22;;;12.10;99.90;;;;;;5033071;28;20053;-74
2022/06/16 02:47:44;;;;;;;6.43;2.65;;;12.10;99.90;;;;;;5032662;28;20127;-78
2022/06/16 02:50:17;;;;;;;6.95;2.80;;;12.50;99.90;;;;;;5050582;28;20064;-76
2022/06/16 02:52:53;;;;;;;7.57;2.80;;;12.10;99.90;;;;;;5050509;28;20033;-76
2022/06/16 02:55:36;;;;;;;5.55;2.55;;;12.00;99.90;;;;;;5050644;28;20041;-76
2022/06/16 02:58:03;;;;;;;8.25;2.95;;;11.90;99.90;;;;;;5050910;28;20066;-77
2022/06/16 03:00:37;;;;;;;6.45;3.33;;;11.90;99.90;;;;;;5050682;28;20045;-77
2022/06/16 03:03:20;;;;;;;6.80;3.63;;;11.90;99.90;;;;;;5032651;28;20037;-75
2022/06/16 03:05:48;;;;;;;3.88;2.47;;;11.90;99.90;;;;;;5050441;28;20531;-76
2022/06/16 03:08:14;;;;;;;7.07;3.03;;;11.80;99.90;;;;;;5050649;28;20070;-78
2022/06/16 03:10:52;;;;;;;8.98;3.20;;;11.70;99.90;;;;;;5050354;28;20488;-77
2022/06/16 03:13:27;;;;;;;5.70;3.20;;;11.80;99.90;;;;;;5050499;28;20044;-76
2022/06/16 03:15:54;;;;;;;8.48;3.00;;;11.60;99.90;;;;;;5050423;28;20083;-77
2022/06/16 03:18:20;;;;;;;6.32;3.05;;;11.90;99.90;;;;;;5050141;28;20120;-75
2022/06/16 03:20:47;;;;;;;7.80;3.20;;;11.70;99.90;;;;;;5050415;28;20036;-74
2022/06/16 03:23:13;;;;;;;5.43;3.47;;;11.60;99.90;;;;;;5050422;28;20045;-80
2022/06/16 03:25:39;;;;;;;6.80;3.58;;;11.60;99.90;;;;;;5050288;28;20037;-76
2022/06/16 03:28:05;;;;;;;9.38;4.00;;;11.60;99.90;;;;;;5032645;28;20052;-79
2022/06/16 03:30:31;;;;;;;9.88;3.83;;;11.60;99.90;;;;;;5050492;28;20124;-75
2022/06/16 03:32:57;;;;;;;8.50;4.03;;;11.70;99.90;;;;;;5050547;28;20124;-74
2022/06/16 03:35:23;;;;;;;7.38;3.60;;;11.60;99.90;;;;;;5050267;28;20536;-78
2022/06/16 03:37:48;;;;;;;7.05;3.65;;;11.60;99.90;;;;;;5050646;28;20045;-75
2022/06/16 03:40:14;;;;;;;9.57;4.10;;;11.60;99.90;;;;;;5032593;28;20140;-74
2022/06/16 03:42:40;;;;;;;7.80;4.30;;;11.60;99.90;;;;;;5032823;28;20392;-76
2022/06/16 03:45:07;;;;;;;7.28;3.92;;;11.60;99.90;;;;;;5050432;28;20041;-75
2022/06/16 03:47:33;;;;;;;9.63;3.88;;;11.60;99.90;;;;;;5050094;28;20563;-77
2022/06/16 03:49:58;;;;;;;7.60;4.20;;;11.50;99.90;;;;;;5049916;28;20186;-75
2022/06/16 03:52:24;;;;;;;8.45;4.60;;;11.60;99.90;;;;;;5050309;28;20145;-75
2022/06/16 03:54:50;;;;;;;8.02;4.15;;;11.60;99.90;;;;;;5032186;28;20045;-75
2022/06/16 03:57:15;;;;;;;10.90;4.85;;;11.70;99.90;;;;;;5032365;28;20041;-75
2022/06/16 03:59:41;;;;;;;6.63;4.05;;;11.70;99.90;;;;;;5050068;28;20139;-76
2022/06/16 04:02:07;;;;;;;8.90;3.90;;;12.00;99.90;;;;;;5032794;28;20439;-77
2022/06/16 04:04:33;;;;;;;7.60;4.63;;;11.90;99.90;;;;;;5053621;28;20387;-75
2022/06/16 04:06:58;;;;;;;7.38;4.30;;;11.70;99.90;;;;;;5053934;28;20045;-75
2022/06/16 04:09:24;;;;;;;8.50;5.28;;;11.80;99.90;;;;;;5036275;28;20122;-75
2022/06/16 04:11:50;;;;;;;9.57;5.35;;;11.90;99.90;;;;;;5053903;28;20045;-75
2022/06/16 04:14:16;;;;;;;7.68;5.40;;;11.90;99.90;;;;;;5035983;28;20081;-76
2022/06/16 04:16:48;;;;;;;11.88;5.13;;;12.00;99.90;;;;;;5035427;28;20484;-74
2022/06/16 04:19:17;;;;;;;9.18;5.22;;;12.30;99.90;;;;;;5035713;28;20037;-76
2022/06/16 04:21:44;;;;;;;11.45;5.30;;;12.10;99.90;;;;;;5035297;28;20619;-79
2022/06/16 04:24:10;;;;;;;7.72;4.70;;;12.10;99.90;;;;;;5053567;28;20087;-75
2022/06/16 04:26:39;;;;;;;12.35;5.38;;;12.10;99.90;;;;;;5053500;28;20049;-75
2022/06/16 04:29:06;;;;;;;9.10;5.63;;;12.20;99.90;;;;;;5053575;28;20123;-78
2022/06/16 04:31:32;;;;;;;13.20;5.53;;;12.20;99.90;;;;;;5035093;28;20140;-75
2022/06/16 04:33:58;;;;;;;11.05;5.22;;;12.30;99.90;;;;;;5035274;28;20127;-74
2022/06/16 04:36:24;;;;;;;9.38;4.95;;;12.40;99.90;;;;;;5052913;28;20059;-76
2022/06/16 04:38:50;;;;;;;8.88;5.03;;;12.40;99.90;;;;;;5035207;28;20076;-77
2022/06/16 04:41:17;;;;;;;13.27;5.53;;;12.50;99.90;;;;;;5053145;28;20455;-77
2022/06/16 04:43:43;;;;;;;13.20;5.70;;;12.60;99.90;;;;;;5053298;28;20051;-75
2022/06/16 04:46:08;;;;;;;9.13;5.25;;;12.70;99.90;;;;;;5052809;28;20120;-77
2022/06/16 04:48:36;;;;;;;10.13;5.85;;;13.00;99.90;;;;;;5034877;28;20061;-74
2022/06/16 04:51:03;;;;;;;8.75;5.75;;;12.50;99.90;;;;;;5034731;28;20055;-78
2022/06/16 04:53:30;;;;;;;11.55;5.30;;;12.90;99.90;;;;;;5052866;28;20048;-74
2022/06/16 04:55:57;;;;;;;8.75;5.38;;;13.00;99.90;;;;;;5053032;28;20052;-74
2022/06/16 04:58:23;;;;;;;9.75;5.57;;;13.00;99.90;;;;;;5052674;28;20041;-76
2022/06/16 05:00:50;;;;;;;11.23;5.40;;;13.10;99.90;;;;;;5052864;28;20051;-79
2022/06/16 05:03:17;;;;;;;7.82;5.20;;;13.20;99.90;;;;;;5052811;28;20048;-78
2022/06/16 05:05:48;;;;;;;16.65;6.88;;;13.30;99.90;;;;;;5052784;28;20037;-76
2022/06/16 05:08:15;;;;;;;10.20;6.30;;;13.40;99.90;;;;;;5052233;28;20084;-78
2022/06/16 05:10:41;;;;;;;13.68;6.05;;;13.40;99.90;;;;;;5052689;28;20477;-75
2022/06/16 05:13:08;;;;;;;13.00;6.07;;;13.50;99.90;;;;;;5052474;28;20045;-81
2022/06/16 05:15:34;;;;;;;11.05;5.65;;;13.60;99.90;;;;;;5052607;28;20125;-79
2022/06/16 05:18:00;;;;;;;12.50;5.60;;;13.60;99.90;;;;;;5052218;28;20041;-75
2022/06/16 05:20:25;;;;;;;15.30;5.90;;;13.70;99.90;;;;;;5052456;28;20048;-77
2022/06/16 05:22:51;;;;;;;10.50;6.05;;;13.70;99.90;;;;;;5052233;28;20124;-76
2022/06/16 05:25:17;;;;;;;8.90;5.47;;;13.80;99.90;;;;;;5034345;28;20049;-75
2022/06/16 05:27:42;;;;;;;13.50;5.95;;;13.90;99.90;;;;;;5034456;28;20128;-79
2022/06/16 05:30:08;;;;;;;11.57;5.68;;;14.10;99.90;;;;;;5052316;28;20048;-76
2022/06/16 05:32:34;;;;;;;12.38;6.15;;;14.00;99.90;;;;;;5052206;28;20056;-75
2022/06/16 05:35:00;;;;;;;11.43;5.78;;;14.20;99.90;;;;;;5052291;28;20037;-74
2022/06/16 05:37:26;;;;;;;10.02;5.75;;;14.20;99.90;;;;;;5034286;28;20452;-75
2022/06/16 05:39:52;;;;;;;11.18;5.40;;;14.30;99.90;;;;;;5052196;28;20049;-74
2022/06/16 05:42:18;;;;;;;9.75;5.35;;;14.40;99.90;;;;;;5051932;28;20037;-78
2022/06/16 05:44:44;;;;;;;10.85;5.72;;;14.60;99.90;;;;;;5052215;28;20190;-79
2022/06/16 05:47:10;;;;;;;13.45;5.90;;;14.40;99.90;;;;;;5034239;28;20044;-75
2022/06/16 05:49:38;;;;;;;11.32;4.80;;;14.50;99.90;;;;;;5052285;28;20056;-75
2022/06/16 05:52:12;;;;;;;8.68;4.22;;;14.60;99.90;;;;;;5052257;28;20510;-73
2022/06/16 05:54:37;;;;;;;10.52;4.68;;;14.70;99.90;;;;;;5033841;28;20103;-76
2022/06/16 05:57:03;;;;;;;6.90;4.32;;;14.70;99.90;;;;;;5052081;28;20466;-75
2022/06/16 05:59:30;;;;;;;10.00;4.80;;;14.90;99.90;;;;;;5034317;28;20424;-80
2022/06/16 06:01:55;;;;;;;12.43;4.10;;;15.00;99.90;;;;;;5051949;28;20110;-74
2022/06/16 06:04:22;;;;;;;9.82;4.63;;;15.10;99.90;;;;;;5052142;28;20096;-75
2022/06/16 06:06:48;;;;;;;10.95;4.43;;;15.40;99.90;;;;;;5051703;28;20044;-74
2022/06/16 06:17:27;;;;;;;7.93;3.35;;;15.60;99.90;;;;;;5051422;28;20586;-78
2022/06/16 06:19:53;;;;;;;8.85;2.85;;;15.70;99.90;;;;;;5051428;28;20087;-77
2022/06/16 06:22:24;;;;;;;7.85;2.53;;;15.90;99.90;;;;;;5051317;28;20037;-74
2022/06/16 06:24:56;;;;;;;9.35;2.65;;;16.00;99.90;;;;;;5032737;28;20094;-78
2022/06/16 06:27:31;;;;;;;6.55;2.45;;;16.10;99.90;;;;;;5051472;28;20057;-77
2022/06/16 06:29:57;;;;;;;6.15;2.78;;;16.30;99.90;;;;;;5051417;28;20102;-76
2022/06/16 06:32:24;;;;;;;6.18;2.53;;;16.50;99.90;;;;;;5051354;28;20045;-77
2022/06/16 06:34:51;;;;;;;5.95;2.03;;;16.60;99.90;;;;;;5051209;28;20041;-78
2022/06/16 06:37:20;;;;;;;4.22;1.90;;;16.80;99.90;;;;;;5016546;28;20049;-76
2022/06/16 06:39:45;;;;;;;8.80;2.20;;;17.00;99.90;;;;;;5050768;28;20184;-75
2022/06/16 06:42:11;;;;;;;8.02;1.73;;;17.20;99.90;;;;;;5033477;28;20504;-77
2022/06/16 06:44:37;;;;;;;4.75;2.05;;;17.40;99.90;;;;;;5051352;28;20111;-76
2022/06/16 06:47:04;;;;;;;6.60;1.90;;;17.60;99.90;;;;;;5051049;28;20056;-79
2022/06/16 06:49:30;;;;;;;5.97;1.80;;;17.90;99.90;;;;;;5032694;28;20481;-79
2022/06/16 06:51:56;;;;;;;4.45;1.90;;;18.10;99.90;;;;;;5050798;28;20128;-77
2022/06/16 06:54:22;;;;;;;5.30;1.63;;;18.20;99.90;;;;;;5032446;28;20052;-77
2022/06/16 06:56:49;;;;;;;4.28;1.15;;;18.40;99.90;;;;;;5050618;28;20121;-77
2022/06/16 06:59:18;;;;;;;5.68;1.75;;;18.60;99.90;;;;;;5050928;28;20048;-76
2022/06/16 07:01:45;;;;;;;4.93;1.55;;;18.90;99.90;;;;;;5032760;28;20052;-78
2022/06/16 07:04:11;;;;;;;6.72;1.67;;;19.20;99.90;;;;;;5015437;28;20095;-77
2022/06/16 07:06:37;;;;;;;6.13;1.30;;;19.40;99.90;;;;;;5050585;28;20080;-75
2022/06/16 07:09:03;;;;;;;7.68;1.40;;;19.50;99.90;;;;;;5050572;28;20099;-76
2022/06/16 07:11:29;;;;;;;4.57;1.08;;;19.70;99.90;;;;;;5032246;28;20037;-75
2022/06/16 07:13:54;;;;;;;4.20;1.00;;;19.90;99.90;;;;;;5032868;28;20060;-77
2022/06/16 07:16:21;;;;;;;4.03;1.13;;;19.90;99.90;;;;;;5050639;28;20048;-76
2022/06/16 07:18:48;;;;;;;2.17;0.80;;;20.40;99.90;;;;;;5050350;28;20056;-77
2022/06/16 07:21:15;;;;;;;3.88;0.75;;;20.50;99.90;;;;;;5050543;28;20040;-77
2022/06/16 07:23:41;;;;;;;4.18;1.00;;;20.80;99.90;;;;;;5050405;28;20049;-79
2022/06/16 07:26:08;;;;;;;3.35;1.00;;;20.90;99.90;;;;;;5049826;28;20059;-77
2022/06/16 07:28:34;;;;;;;3.67;0.80;;;21.10;99.90;;;;;;5032597;28;20816;-78
2022/06/16 07:31:00;;;;;;;4.43;0.82;;;21.30;99.90;;;;;;5050326;28;20088;-81
2022/06/16 07:33:25;;;;;;;3.58;0.68;;;21.40;99.90;;;;;;5032483;28;20114;-79
2022/06/16 07:35:53;;;;;;;12.55;1.00;;;21.50;99.90;;;;;;5050410;28;20416;-77
2022/06/16 07:38:20;;;;;;;5.65;0.95;;;21.70;99.90;;;;;;5053313;28;20045;-75
2022/06/16 07:40:46;;;;;;;4.75;1.13;;;21.90;99.90;;;;;;5035863;28;20518;-77
2022/06/16 07:43:11;;;;;;;6.38;1.20;;;22.10;99.90;;;;;;5054371;28;20045;-75
2022/06/16 07:45:39;;;;;;;3.75;1.08;;;22.20;99.90;;;;;;5054614;28;20045;-76
2022/06/16 07:48:06;;;;;;;3.50;1.17;;;22.20;99.90;;;;;;5053943;28;20877;-76
2022/06/16 07:50:36;;;;;;;4.63;1.48;;;22.30;99.90;;;;;;5054296;28;20128;-78
2022/06/16 07:53:03;;;;;;;4.07;1.00;;;22.40;99.90;;;;;;5054163;28;20119;-76
2022/06/16 07:55:29;;;;;;;5.47;1.10;;;22.30;99.90;;;;;;5053931;28;20041;-80
2022/06/16 07:57:55;;;;;;;4.10;0.80;;;22.50;99.90;;;;;;5053992;28;20075;-80
2022/06/16 08:00:25;;;;;;;7.97;1.05;;;22.70;99.90;;;;;;5036181;28;20041;-78
2022/06/16 08:02:51;;;;;;;3.83;1.08;;;22.80;99.90;;;;;;5053987;28;20048;-81
2022/06/16 08:05:17;;;;;;;3.15;0.90;;;22.80;99.90;;;;;;5054128;28;20040;-74
2022/06/16 08:07:44;;;;;;;5.22;1.20;;;22.90;99.90;;;;;;5036318;28;20400;-75
2022/06/16 08:10:14;;;;;;;6.80;1.15;;;23.00;99.90;;;;;;5053877;28;20081;-77
2022/06/16 08:12:40;;;;;;;5.25;1.10;;;23.00;99.60;;;;;;5054203;28;20069;-76
2022/06/16 08:15:06;;;;;;;5.30;1.20;;;23.20;99.30;;;;;;5054170;28;20037;-79
2022/06/16 08:17:34;;;;;;;2.85;1.00;;;23.20;99.60;;;;;;5035888;28;20052;-75
2022/06/16 08:20:00;;;;;;;5.63;1.20;;;23.30;99.70;;;;;;5035995;28;20519;-76
2022/06/16 08:22:27;;;;;;;4.28;1.08;;;23.40;99.30;;;;;;5035031;28;20071;-77
2022/06/16 08:24:53;;;;;;;7.35;1.10;;;23.30;98.70;;;;;;5053446;28;20041;-82
2022/06/16 08:27:22;;;;;;;5.53;1.27;;;23.30;99.50;;;;;;5035437;28;20506;-79
2022/06/16 08:29:50;;;;;;;5.38;1.13;;;23.40;98.90;;;;;;5053588;28;20044;-80
2022/06/16 08:32:17;;;;;;;4.40;1.67;;;23.70;99.40;;;;;;5053480;28;20048;-78
2022/06/16 08:34:43;;;;;;;5.60;1.60;;;23.80;98.90;;;;;;5053661;28;20064;-78
2022/06/16 08:37:09;;;;;;;5.22;1.20;;;23.70;98.50;;;;;;5035581;28;20477;-78
2022/06/16 08:39:35;;;;;;;3.25;1.00;;;23.70;98.40;;;;;;5035679;28;20044;-76
2022/06/16 08:42:39;;;;;;;4.93;1.48;;;23.90;99.20;;;;;;5035725;28;20518;-81
2022/06/16 08:45:07;;;;;;;4.63;1.50;;;24.10;98.00;;;;;;5035115;28;20059;-80
2022/06/16 08:47:37;;;;;;;5.47;1.90;;;24.30;98.40;;;;;;5034827;28;20085;-81
2022/06/16 08:50:10;;;;;;;5.78;1.80;;;24.20;97.70;;;;;;5035115;28;20056;-83
2022/06/16 08:52:50;;;;;;;4.38;1.70;;;24.10;98.00;;;;;;5053296;28;20056;-78
2022/06/16 08:55:22;;;;;;;4.05;1.40;;;23.90;98.30;;;;;;5053309;28;20144;-78
2022/06/16 08:57:47;;;;;;;5.60;1.80;;;24.00;98.20;;;;;;5052902;28;20048;-76
2022/06/16 09:00:18;;;;;;;4.05;1.85;;;24.00;98.20;;;;;;5052760;28;20098;-78
2022/06/16 09:03:01;;;;;;;6.10;2.20;;;24.00;98.50;;;;;;5053061;28;20048;-77
2022/06/16 09:05:50;;;;;;;6.70;1.60;;;24.00;97.10;;;;;;5052954;28;20345;-76
2022/06/16 09:08:37;;;;;;;6.28;1.95;;;24.00;97.50;;;;;;5052878;28;20048;-76
2022/06/16 09:11:35;;;;;;;6.28;2.30;;;24.40;98.90;;;;;;5034938;28;20136;-82
2022/06/16 09:14:21;;;;;;;6.18;2.17;;;24.20;96.70;;;;;;5052566;28;20055;-78
2022/06/16 09:17:08;;;;;;;5.95;1.80;;;24.30;97.90;;;;;;5034830;28;20489;-80
2022/06/16 09:19:51;;;;;;;5.82;1.80;;;24.50;97.70;;;;;;5052641;28;20126;-77
2022/06/16 09:22:37;;;;;;;8.43;2.13;;;24.70;97.60;;;;;;5034986;28;20076;-83
2022/06/16 09:25:20;;;;;;;4.18;1.73;;;24.80;97.00;;;;;;5052234;28;20045;-80
2022/06/16 09:28:01;;;;;;;7.07;2.30;;;24.70;97.40;;;;;;5052336;28;20047;-76
2022/06/16 09:30:32;;;;;;;4.22;1.90;;;24.90;96.70;;;;;;5034195;28;20048;-75
2022/06/16 09:33:17;;;;;;;6.13;2.30;;;24.90;97.10;;;;;;5052542;28;20052;-75
2022/06/16 09:35:45;;;;;;;;;;;25.00;96.10;;;;;;5035107;28;20447;-77
2022/06/16 09:38:24;;;;;;;4.72;2.10;;;25.00;96.10;;;;;;5052409;28;20308;-82
2022/06/16 09:41:04;;;;;;;5.43;2.05;;;24.90;96.10;;;;;;5033991;28;20136;-78
2022/06/16 09:43:33;;;;;;;5.18;2.28;;;25.10;96.10;;;;;;5034578;28;20045;-76
2022/06/16 09:46:06;;;;;;;7.18;2.20;;;25.20;96.60;;;;;;5051634;28;20055;-78
2022/06/16 09:48:39;;;;;;;6.82;2.60;;;25.10;96.00;;;;;;5051925;28;20069;-80
2022/06/16 09:51:23;;;;;;;4.95;2.10;;;25.30;97.00;;;;;;5052226;28;20385;-77
2022/06/16 09:54:04;;;;;;;8.50;2.10;;;25.40;96.10;;;;;;5034274;28;20089;-76
2022/06/16 09:56:37;;;;;;;4.90;2.00;;;25.50;95.80;;;;;;5051961;28;20083;-75
2022/06/16 09:59:11;;;;;;;9.07;2.30;;;25.50;94.60;;;;;;5051637;28;20135;-81
2022/06/16 10:01:47;;;;;;;6.38;2.38;;;25.20;93.80;;;;;;5051046;28;20496;-78
2022/06/16 10:04:14;;;;;;;6.53;2.55;;;25.30;95.30;;;;;;5033793;28;20508;-76
2022/06/16 10:06:53;;;;;;;4.78;1.80;;;25.60;96.10;;;;;;5051846;28;20152;-78
2022/06/16 10:09:42;;;;;;;6.38;2.00;;;25.70;94.80;;;;;;5033715;28;20396;-75
2022/06/16 10:12:38;;;;;;;5.30;2.20;;;25.70;94.30;;;;;;5051646;28;20048;-76
2022/06/16 10:15:18;;;;;;;4.78;2.55;;;25.70;94.00;;;;;;5051525;28;20049;-76
2022/06/16 10:17:46;;;;;;;5.07;2.28;;;25.80;91.40;;;;;;5033531;28;20273;-77
2022/06/16 10:20:14;;;;;;;4.55;2.30;;;25.60;94.00;;;;;;5033677;28;20404;-78
2022/06/16 10:22:45;;;;;;;7.78;2.53;;;25.30;93.40;;;;;;5051578;28;20036;-78
2022/06/16 10:25:15;;;;;;;12.50;2.80;;;25.40;93.20;;;;;;5051405;28;20504;-76
2022/06/16 10:27:46;;;;;;;7.25;2.20;;;25.30;93.00;;;;;;5051397;28;20690;-84
2022/06/16 10:30:27;;;;;;;7.93;2.33;;;25.50;93.70;;;;;;5051245;28;20045;-77
2022/06/16 10:33:23;;;;;;;5.10;2.03;;;25.70;93.80;;;;;;5050855;28;20036;-77
2022/06/16 10:35:48;;;;;;;4.88;1.98;;;25.90;93.90;;;;;;5051079;28;20496;-77
2022/06/16 10:38:39;;;;;;;5.40;2.03;;;26.00;93.50;;;;;;5033603;28;20048;-76
2022/06/16 10:41:21;;;;;;;5.85;1.95;;;26.00;93.20;;;;;;5032884;28;20064;-76
2022/06/16 10:43:47;;;;;;;4.25;2.00;;;26.30;93.20;;;;;;5016942;28;20049;-77
2022/06/16 10:46:29;;;;;;;4.90;1.98;;;26.20;92.20;;;;;;5050585;28;20496;-77
2022/06/16 10:49:00;;;;;;;4.63;2.20;;;26.30;90.60;;;;;;5050690;28;20519;-78
2022/06/16 10:51:28;;;;;;;5.03;1.73;;;26.20;92.10;;;;;;5050815;28;20044;-77
2022/06/16 10:54:12;;;;;;;3.83;1.92;;;26.30;91.90;;;;;;5050705;28;20049;-76
2022/06/16 10:56:39;;;;;;;3.45;1.45;;;26.40;91.90;;;;;;5050904;28;20052;-76
2022/06/16 10:59:19;;;;;;;5.82;2.00;;;26.40;91.50;;;;;;5050685;28;20488;-77
2022/06/16 11:02:01;;;;;;;6.85;1.77;;;26.50;91.40;;;;;;5050455;28;20132;-77
2022/06/16 11:04:36;;;;;;;5.30;1.90;;;26.50;92.30;;;;;;5050536;28;20056;-76
2022/06/16 11:07:03;;;;;;;7.07;1.98;;;26.30;91.50;;;;;;5032795;28;20136;-77
2022/06/16 11:09:34;;;;;;;5.22;1.77;;;26.30;92.00;;;;;;5032814;28;20053;-76
2022/06/16 11:12:17;;;;;;;4.32;1.83;;;26.50;90.40;;;;;;5050601;28;20049;-77
2022/06/16 11:15:04;;;;;;;4.72;1.90;;;26.70;90.90;;;;;;5051084;28;20041;-78
2022/06/16 11:17:40;;;;;;;4.82;1.70;;;26.40;90.60;;;;;;5050417;28;20079;-76
2022/06/16 11:20:12;;;;;;;5.90;1.77;;;26.00;90.40;;;;;;5050409;28;20041;-77
2022/06/16 11:22:41;;;;;;;6.05;1.90;;;25.70;91.70;;;;;;5032758;28;20415;-75
2022/06/16 11:25:24;;;;;;;6.30;2.08;;;25.60;92.20;;;;;;5032541;28;20503;-75
2022/06/16 11:28:10;;;;;;;5.10;1.92;;;25.40;92.50;;;;;;5032464;28;20045;-79
2022/06/16 11:30:53;;;;;;;4.90;2.10;;;25.60;92.70;;;;;;5039618;28;20484;-76
2022/06/16 11:36:44;;;;;;;6.32;1.67;;;25.30;93.00;;;;;;5050559;28;20620;-77
2022/06/16 11:39:49;;;;;;;4.53;1.63;;;25.20;91.50;;;;;;5050641;28;20053;-77
2022/06/16 11:42:40;;;;;;;5.38;2.05;;;25.00;91.20;;;;;;5050168;28;20048;-76
2022/06/16 11:45:25;;;;;;;3.97;1.95;;;24.80;91.50;;;;;;5050175;28;20045;-77
2022/06/16 11:47:54;;;;;;;5.93;1.75;;;25.30;92.50;;;;;;5049777;28;20132;-77
2022/06/16 11:50:39;;;;;;;4.88;1.90;;;25.60;92.20;;;;;;5032057;28;20057;-83
2022/06/16 11:53:20;;;;;;;4.32;1.80;;;25.90;91.70;;;;;;5050188;28;20615;-79
2022/06/16 11:55:55;;;;;;;3.33;1.70;;;25.70;91.20;;;;;;5050278;28;20076;-75
2022/06/16 11:58:36;;;;;;;5.15;2.22;;;25.90;92.30;;;;;;5032267;28;20123;-81
2022/06/16 12:01:17;;;;;;;3.83;1.48;;;25.90;91.90;;;;;;5015618;28;20056;-78
2022/06/16 12:04:07;;;;;;;5.93;1.70;;;25.90;92.10;;;;;;5050172;28;20049;-81
2022/06/16 12:06:42;;;;;;;3.60;1.70;;;26.10;90.90;;;;;;5032074;28;20484;-77
2022/06/16 12:09:29;;;;;;;5.47;1.95;;;25.80;90.60;;;;;;5049865;28;20471;-75
2022/06/16 12:12:06;;;;;;;5.88;1.75;;;26.00;92.30;;;;;;5031933;28;20048;-77
2022/06/16 12:14:49;;;;;;;5.80;1.58;;;26.00;90.40;;;;;;5049900;28;20123;-79
2022/06/16 12:17:28;;;;;;;4.50;1.48;;;26.50;88.30;;;;;;5032129;28;20082;-78
2022/06/16 12:20:12;;;;;;;5.47;1.60;;;26.70;90.40;;;;;;5049554;28;20045;-78
2022/06/16 12:22:49;;;;;;;5.80;2.30;;;26.70;90.30;;;;;;5032173;28;20052;-78
2022/06/16 12:25:21;;;;;;;4.88;2.03;;;26.90;88.60;;;;;;5019317;28;20049;-77
2022/06/16 12:28:01;;;;;;;5.13;2.00;;;26.50;88.80;;;;;;5053391;28;20052;-77
2022/06/16 12:30:42;;;;;;;5.82;1.60;;;26.90;90.10;;;;;;5035427;28;20044;-76
2022/06/16 12:33:17;;;;;;;5.15;1.50;;;26.80;88.90;;;;;;5053732;28;20048;-77
2022/06/16 12:36:01;;;;;;;3.40;1.65;;;27.20;89.50;;;;;;5035300;28;20083;-75
2022/06/16 12:38:31;;;;;;;7.15;2.30;;;27.30;86.50;;;;;;5053438;28;20140;-75
2022/06/16 12:41:14;;;;;;;6.63;2.60;;;27.40;89.10;;;;;;5053343;28;20135;-77
2022/06/16 12:43:45;;;;;;;6.47;1.75;;;27.30;88.70;;;;;;5053294;28;20047;-76
2022/06/16 12:46:22;;;;;;;6.30;2.28;;;27.40;86.60;;;;;;5053397;28;20048;-81
2022/06/16 12:48:59;;;;;;;5.47;2.20;;;27.50;87.00;;;;;;5035078;28;20113;-77
2022/06/16 12:51:34;;;;;;;4.63;2.00;;;27.60;86.90;;;;;;5052822;28;20746;-78
2022/06/16 12:54:08;;;;;;;4.10;1.55;;;27.60;85.90;;;;;;5053314;28;20162;-76
2022/06/16 12:56:55;;;;;;;14.27;2.28;;;27.40;85.70;;;;;;5052884;28;20056;-78
2022/06/16 12:59:26;;;;;;;8.52;2.00;;;27.50;84.10;;;;;;5035563;28;20385;-79
2022/06/16 13:01:57;;;;;;;5.93;2.20;;;27.60;85.80;;;;;;5053054;28;20527;-78
2022/06/16 13:04:26;;;;;;;5.43;2.10;;;27.40;85.00;;;;;;5053239;28;20087;-81
2022/06/16 13:06:54;;;;;;;6.35;1.88;;;27.10;82.90;;;;;;5052675;28;20049;-80
2022/06/16 13:09:23;;;;;;;7.18;2.08;;;27.10;86.10;;;;;;5052957;28;20071;-79
2022/06/16 13:12:12;;;;;;;7.47;2.03;;;27.40;85.40;;;;;;5052794;28;20394;-76
2022/06/16 13:14:46;;;;;;;5.20;1.63;;;27.40;82.10;;;;;;5052586;28;20469;-82
2022/06/16 13:17:13;;;;;;;3.95;1.95;;;27.50;86.20;;;;;;5052996;28;20049;-81
2022/06/16 13:19:46;;;;;;;4.00;1.90;;;27.30;85.30;;;;;;5034626;28;20049;-76
2022/06/16 13:22:33;;;;;;;8.10;1.83;;;27.10;81.70;;;;;;5052630;28;20045;-77
2022/06/16 13:25:06;;;;;;;6.15;1.90;;;27.20;84.90;;;;;;5034634;28;20079;-79
2022/06/16 13:27:38;;;;;;;5.07;1.80;;;27.20;83.70;;;;;;5052674;28;20111;-78